sensor_id;sensor_type;location;lat;lon;timestamp;temperature;humidity
71084;DHT22;58741;52.672;13.548;2023-11-21T00:02:21;7.40;99.90
71084;DHT22;58741;52.672;13.548;2023-11-21T00:04:49;7.40;99.90
71084;DHT22;58741;52.672;13.548;2023-11-21T00:07:16;7.40;99.90
71084;DHT22;58741;52.672;13.548;2023-11-21T00:09:43;7.30;99.90
71084;DHT22;58741;52.672;13.548;2023-11-21T00:12:10;7.30;99.90
71084;DHT22;58741;52.672;13.548;2023-11-21T00:14:37;7.30;99.90
71084;DHT22;58741;52.672;13.548;2023-11-21T00:17:05;7.30;99.90
71084;DHT22;58741;52.672;13.548;2023-11-21T00:19:32;7.20;99.90
71084;DHT22;58741;52.672;13.548;2023-11-21T00:22:01;7.20;99.90
71084;DHT22;58741;52.672;13.548;2023-11-21T00:24:28;7.20;99.90
71084;DHT22;58741;52.672;13.548;2023-11-21T00:26:56;7.20;99.90
71084;DHT22;58741;52.672;13.548;2023-11-21T00:29:22;7.20;99.90
71084;DHT22;58741;52.672;13.548;2023-11-21T00:31:50;7.20;99.90
71084;DHT22;58741;52.672;13.548;2023-11-21T00:34:17;7.10;99.90
71084;DHT22;58741;52.672;13.548;2023-11-21T00:36:44;7.10;99.90
71084;DHT22;58741;52.672;13.548;2023-11-21T00:39:11;7.10;99.90
71084;DHT22;58741;52.672;13.548;2023-11-21T00:41:39;7.00;99.90
71084;DHT22;58741;52.672;13.548;2023-11-21T00:44:06;7.00;99.90
71084;DHT22;58741;52.672;13.548;2023-11-21T00:46:33;7.00;99.90
71084;DHT22;58741;52.672;13.548;2023-11-21T00:49:00;7.00;99.90
71084;DHT22;58741;52.672;13.548;2023-11-21T00:51:27;7.00;99.90
71084;DHT22;58741;52.672;13.548;2023-11-21T00:53:54;7.00;99.90
71084;DHT22;58741;52.672;13.548;2023-11-21T00:56:21;7.00;99.90
71084;DHT22;58741;52.672;13.548;2023-11-21T00:58:49;7.00;99.90
71084;DHT22;58741;52.672;13.548;2023-11-21T01:01:20;6.90;99.90
71084;DHT22;58741;52.672;13.548;2023-11-21T01:03:47;6.90;99.90
71084;DHT22;58741;52.672;13.548;2023-11-21T01:06:14;6.90;99.90
71084;DHT22;58741;52.672;13.548;2023-11-21T01:08:43;6.90;99.90
71084;DHT22;58741;52.672;13.548;2023-11-21T01:11:11;6.80;99.90
71084;DHT22;58741;52.672;13.548;2023-11-21T01:13:42;6.80;99.90
71084;DHT22;58741;52.672;13.548;2023-11-21T01:16:09;6.70;99.90
71084;DHT22;58741;52.672;13.548;2023-11-21T01:18:36;6.80;99.90
71084;DHT22;58741;52.672;13.548;2023-11-21T01:21:03;6.70;99.90
71084;DHT22;58741;52.672;13.548;2023-11-21T01:23:31;6.70;99.90
71084;DHT22;58741;52.672;13.548;2023-11-21T01:25:58;6.70;99.90
71084;DHT22;58741;52.672;13.548;2023-11-21T01:28:24;6.70;99.90
71084;DHT22;58741;52.672;13.548;2023-11-21T01:30:51;6.70;99.90
71084;DHT22;58741;52.672;13.548;2023-11-21T01:33:19;6.60;99.90
71084;DHT22;58741;52.672;13.548;2023-11-21T01:35:46;6.60;99.90
71084;DHT22;58741;52.672;13.548;2023-11-21T01:38:13;6.60;99.90
71084;DHT22;58741;52.672;13.548;2023-11-21T01:40:41;6.60;99.90
71084;DHT22;58741;52.672;13.548;2023-11-21T01:43:08;6.60;99.90
71084;DHT22;58741;52.672;13.548;2023-11-21T01:45:35;6.60;99.90
71084;DHT22;58741;52.672;13.548;2023-11-21T01:48:03;6.50;99.90
71084;DHT22;58741;52.672;13.548;2023-11-21T01:50:30;6.50;99.90
71084;DHT22;58741;52.672;13.548;2023-11-21T01:52:58;6.50;99.90
71084;DHT22;58741;52.672;13.548;2023-11-21T01:55:24;6.50;99.90
71084;DHT22;58741;52.672;13.548;2023-11-21T01:57:56;6.50;99.90
71084;DHT22;58741;52.672;13.548;2023-11-21T02:00:24;6.50;99.90
71084;DHT22;58741;52.672;13.548;2023-11-21T02:02:52;6.50;99.90
71084;DHT22;58741;52.672;13.548;2023-11-21T02:05:19;6.50;99.90
71084;DHT22;58741;52.672;13.548;2023-11-21T02:07:48;6.50;99.90
71084;DHT22;58741;52.672;13.548;2023-11-21T02:10:15;6.50;99.90
71084;DHT22;58741;52.672;13.548;2023-11-21T02:12:43;6.50;99.90
71084;DHT22;58741;52.672;13.548;2023-11-21T02:15:13;6.50;99.90
71084;DHT22;58741;52.672;13.548;2023-11-21T02:17:47;6.40;99.90
71084;DHT22;58741;52.672;13.548;2023-11-21T02:20:22;6.40;99.90
71084;DHT22;58741;52.672;13.548;2023-11-21T02:22:56;6.40;99.90
71084;DHT22;58741;52.672;13.548;2023-11-21T02:25:32;6.40;99.90
71084;DHT22;58741;52.672;13.548;2023-11-21T02:28:01;6.40;99.90
71084;DHT22;58741;52.672;13.548;2023-11-21T02:30:30;6.40;99.90
71084;DHT22;58741;52.672;13.548;2023-11-21T02:32:59;6.40;99.90
71084;DHT22;58741;52.672;13.548;2023-11-21T02:35:27;6.30;99.90
71084;DHT22;58741;52.672;13.548;2023-11-21T02:37:54;6.30;99.90
71084;DHT22;58741;52.672;13.548;2023-11-21T02:40:21;6.30;99.90
71084;DHT22;58741;52.672;13.548;2023-11-21T02:42:48;6.30;99.90
71084;DHT22;58741;52.672;13.548;2023-11-21T02:45:20;6.30;99.90
71084;DHT22;58741;52.672;13.548;2023-11-21T02:47:50;6.30;99.90
71084;DHT22;58741;52.672;13.548;2023-11-21T02:50:20;6.30;99.90
71084;DHT22;58741;52.672;13.548;2023-11-21T02:52:47;6.30;99.90
71084;DHT22;58741;52.672;13.548;2023-11-21T02:55:14;6.30;99.90
71084;DHT22;58741;52.672;13.548;2023-11-21T02:57:41;6.30;99.90
71084;DHT22;58741;52.672;13.548;2023-11-21T03:00:08;6.20;99.90
71084;DHT22;58741;52.672;13.548;2023-11-21T03:02:36;6.20;99.90
71084;DHT22;58741;52.672;13.548;2023-11-21T03:05:07;6.20;99.90
71084;DHT22;58741;52.672;13.548;2023-11-21T03:07:39;6.20;99.90
71084;DHT22;58741;52.672;13.548;2023-11-21T03:10:07;6.20;99.90
71084;DHT22;58741;52.672;13.548;2023-11-21T03:12:38;6.20;99.90
71084;DHT22;58741;52.672;13.548;2023-11-21T03:15:06;6.20;99.90
71084;DHT22;58741;52.672;13.548;2023-11-21T03:17:34;6.20;99.90
71084;DHT22;58741;52.672;13.548;2023-11-21T03:20:02;6.20;99.90
71084;DHT22;58741;52.672;13.548;2023-11-21T03:22:30;6.10;99.90
71084;DHT22;58741;52.672;13.548;2023-11-21T03:24:58;6.10;99.90
71084;DHT22;58741;52.672;13.548;2023-11-21T03:27:25;6.10;99.90
71084;DHT22;58741;52.672;13.548;2023-11-21T03:29:52;6.10;99.90
71084;DHT22;58741;52.672;13.548;2023-11-21T03:32:21;6.10;99.90
71084;DHT22;58741;52.672;13.548;2023-11-21T03:34:55;6.00;99.90
71084;DHT22;58741;52.672;13.548;2023-11-21T03:37:26;6.00;99.90
71084;DHT22;58741;52.672;13.548;2023-11-21T03:39:55;6.00;99.90
71084;DHT22;58741;52.672;13.548;2023-11-21T03:42:24;6.00;99.90
71084;DHT22;58741;52.672;13.548;2023-11-21T03:44:53;6.00;99.90
71084;DHT22;58741;52.672;13.548;2023-11-21T03:47:20;5.90;99.90
71084;DHT22;58741;52.672;13.548;2023-11-21T03:49:47;5.90;99.90
71084;DHT22;58741;52.672;13.548;2023-11-21T03:52:15;5.90;99.90
71084;DHT22;58741;52.672;13.548;2023-11-21T03:54:42;5.90;99.90
71084;DHT22;58741;52.672;13.548;2023-11-21T03:57:10;5.90;99.90
71084;DHT22;58741;52.672;13.548;2023-11-21T03:59:40;5.90;99.90
71084;DHT22;58741;52.672;13.548;2023-11-21T04:02:08;5.90;99.90
71084;DHT22;58741;52.672;13.548;2023-11-21T04:04:35;5.80;99.90
71084;DHT22;58741;52.672;13.548;2023-11-21T04:07:03;5.80;99.90
71084;DHT22;58741;52.672;13.548;2023-11-21T04:09:30;5.80;99.90
71084;DHT22;58741;52.672;13.548;2023-11-21T04:11:57;5.80;99.90
71084;DHT22;58741;52.672;13.548;2023-11-21T04:14:24;5.80;99.90
71084;DHT22;58741;52.672;13.548;2023-11-21T04:16:51;5.70;99.90
71084;DHT22;58741;52.672;13.548;2023-11-21T04:19:18;5.70;99.90
71084;DHT22;58741;52.672;13.548;2023-11-21T04:21:45;5.70;99.90
71084;DHT22;58741;52.672;13.548;2023-11-21T04:24:12;5.70;99.90
71084;DHT22;58741;52.672;13.548;2023-11-21T04:26:39;5.70;99.90
71084;DHT22;58741;52.672;13.548;2023-11-21T04:29:06;5.70;99.90
71084;DHT22;58741;52.672;13.548;2023-11-21T04:31:33;5.70;99.90
71084;DHT22;58741;52.672;13.548;2023-11-21T04:34:00;5.60;99.90
71084;DHT22;58741;52.672;13.548;2023-11-21T04:36:27;5.70;99.90
71084;DHT22;58741;52.672;13.548;2023-11-21T04:38:53;5.60;99.90
71084;DHT22;58741;52.672;13.548;2023-11-21T04:41:21;5.60;99.90
71084;DHT22;58741;52.672;13.548;2023-11-21T04:43:47;5.60;99.90
71084;DHT22;58741;52.672;13.548;2023-11-21T04:46:14;5.60;99.90
71084;DHT22;58741;52.672;13.548;2023-11-21T04:48:41;5.60;99.90
71084;DHT22;58741;52.672;13.548;2023-11-21T04:51:08;5.60;99.90
71084;DHT22;58741;52.672;13.548;2023-11-21T04:53:35;5.60;99.90
71084;DHT22;58741;52.672;13.548;2023-11-21T04:56:02;5.60;99.90
71084;DHT22;58741;52.672;13.548;2023-11-21T04:58:30;5.60;99.90
71084;DHT22;58741;52.672;13.548;2023-11-21T05:00:57;5.60;99.90
71084;DHT22;58741;52.672;13.548;2023-11-21T05:03:25;5.50;99.90
71084;DHT22;58741;52.672;13.548;2023-11-21T05:05:53;5.60;99.90
71084;DHT22;58741;52.672;13.548;2023-11-21T05:08:19;5.50;99.90
71084;DHT22;58741;52.672;13.548;2023-11-21T05:10:48;5.50;99.90
71084;DHT22;58741;52.672;13.548;2023-11-21T05:13:16;5.50;99.90
71084;DHT22;58741;52.672;13.548;2023-11-21T05:15:44;5.50;99.90
71084;DHT22;58741;52.672;13.548;2023-11-21T05:18:11;5.50;99.90
71084;DHT22;58741;52.672;13.548;2023-11-21T05:20:40;5.50;99.90
71084;DHT22;58741;52.672;13.548;2023-11-21T05:23:07;5.50;99.90
71084;DHT22;58741;52.672;13.548;2023-11-21T05:25:34;5.50;99.90
71084;DHT22;58741;52.672;13.548;2023-11-21T05:28:05;5.40;99.90
71084;DHT22;58741;52.672;13.548;2023-11-21T05:30:33;5.40;99.90
71084;DHT22;58741;52.672;13.548;2023-11-21T05:33:00;5.40;99.90
71084;DHT22;58741;52.672;13.548;2023-11-21T05:35:27;5.40;99.90
71084;DHT22;58741;52.672;13.548;2023-11-21T05:37:53;5.40;99.90
71084;DHT22;58741;52.672;13.548;2023-11-21T05:40:21;5.40;99.90
71084;DHT22;58741;52.672;13.548;2023-11-21T05:42:49;5.30;99.90
71084;DHT22;58741;52.672;13.548;2023-11-21T05:45:18;5.30;99.90
71084;DHT22;58741;52.672;13.548;2023-11-21T05:47:46;5.30;99.90
71084;DHT22;58741;52.672;13.548;2023-11-21T05:50:15;5.30;99.90
71084;DHT22;58741;52.672;13.548;2023-11-21T05:52:44;5.30;99.90
71084;DHT22;58741;52.672;13.548;2023-11-21T05:55:12;5.20;99.90
71084;DHT22;58741;52.672;13.548;2023-11-21T05:57:41;5.20;99.90
71084;DHT22;58741;52.672;13.548;2023-11-21T06:00:12;5.30;99.90
71084;DHT22;58741;52.672;13.548;2023-11-21T06:02:40;5.20;99.90
71084;DHT22;58741;52.672;13.548;2023-11-21T06:05:08;5.20;99.90
71084;DHT22;58741;52.672;13.548;2023-11-21T06:07:35;5.20;99.90
71084;DHT22;58741;52.672;13.548;2023-11-21T06:10:05;5.20;99.90
71084;DHT22;58741;52.672;13.548;2023-11-21T06:12:35;5.20;99.90
71084;DHT22;58741;52.672;13.548;2023-11-21T06:15:04;5.20;99.90
71084;DHT22;58741;52.672;13.548;2023-11-21T06:17:31;5.20;99.90
71084;DHT22;58741;52.672;13.548;2023-11-21T06:19:59;5.20;99.90
71084;DHT22;58741;52.672;13.548;2023-11-21T06:22:27;5.20;99.90
71084;DHT22;58741;52.672;13.548;2023-11-21T06:24:54;5.20;99.90
71084;DHT22;58741;52.672;13.548;2023-11-21T06:27:21;5.20;99.90
71084;DHT22;58741;52.672;13.548;2023-11-21T06:29:48;5.20;99.90
71084;DHT22;58741;52.672;13.548;2023-11-21T06:32:14;5.20;99.90
71084;DHT22;58741;52.672;13.548;2023-11-21T06:34:43;5.20;99.90
71084;DHT22;58741;52.672;13.548;2023-11-21T06:37:10;5.20;99.90
71084;DHT22;58741;52.672;13.548;2023-11-21T06:39:38;5.20;99.90
71084;DHT22;58741;52.672;13.548;2023-11-21T06:42:05;5.20;99.90
71084;DHT22;58741;52.672;13.548;2023-11-21T06:44:32;5.10;99.90
71084;DHT22;58741;52.672;13.548;2023-11-21T06:47:00;5.10;99.90
71084;DHT22;58741;52.672;13.548;2023-11-21T06:49:28;5.10;99.90
71084;DHT22;58741;52.672;13.548;2023-11-21T06:51:55;5.10;99.90
71084;DHT22;58741;52.672;13.548;2023-11-21T06:54:22;5.10;99.90
71084;DHT22;58741;52.672;13.548;2023-11-21T06:56:49;5.10;99.90
71084;DHT22;58741;52.672;13.548;2023-11-21T06:59:16;5.10;99.90
71084;DHT22;58741;52.672;13.548;2023-11-21T07:01:42;5.10;99.90
71084;DHT22;58741;52.672;13.548;2023-11-21T07:04:10;5.10;99.90
71084;DHT22;58741;52.672;13.548;2023-11-21T07:06:37;5.10;99.90
71084;DHT22;58741;52.672;13.548;2023-11-21T07:09:04;5.10;99.90
71084;DHT22;58741;52.672;13.548;2023-11-21T07:11:31;5.10;99.90
71084;DHT22;58741;52.672;13.548;2023-11-21T07:13:59;5.10;99.90
71084;DHT22;58741;52.672;13.548;2023-11-21T07:16:26;5.10;99.90
71084;DHT22;58741;52.672;13.548;2023-11-21T07:18:53;5.10;99.90
71084;DHT22;58741;52.672;13.548;2023-11-21T07:21:21;5.10;99.90
71084;DHT22;58741;52.672;13.548;2023-11-21T07:23:48;5.10;99.90
71084;DHT22;58741;52.672;13.548;2023-11-21T07:26:15;5.10;99.90
71084;DHT22;58741;52.672;13.548;2023-11-21T07:28:42;5.00;99.90
71084;DHT22;58741;52.672;13.548;2023-11-21T07:31:09;5.00;99.90
71084;DHT22;58741;52.672;13.548;2023-11-21T07:33:37;5.00;99.90
71084;DHT22;58741;52.672;13.548;2023-11-21T07:36:04;5.00;99.90
71084;DHT22;58741;52.672;13.548;2023-11-21T07:38:31;5.10;99.90
71084;DHT22;58741;52.672;13.548;2023-11-21T07:40:59;5.00;99.90
71084;DHT22;58741;52.672;13.548;2023-11-21T07:43:27;5.00;99.90
71084;DHT22;58741;52.672;13.548;2023-11-21T07:46:04;5.00;99.90
71084;DHT22;58741;52.672;13.548;2023-11-21T07:48:32;5.00;99.90
71084;DHT22;58741;52.672;13.548;2023-11-21T07:50:59;5.00;99.90
71084;DHT22;58741;52.672;13.548;2023-11-21T07:53:27;5.00;99.90
71084;DHT22;58741;52.672;13.548;2023-11-21T07:56:13;5.00;99.90
71084;DHT22;58741;52.672;13.548;2023-11-21T07:58:40;5.00;99.90
71084;DHT22;58741;52.672;13.548;2023-11-21T08:01:07;5.00;99.90
71084;DHT22;58741;52.672;13.548;2023-11-21T08:03:34;5.00;99.90
71084;DHT22;58741;52.672;13.548;2023-11-21T08:06:02;5.00;99.90
71084;DHT22;58741;52.672;13.548;2023-11-21T08:08:33;5.00;99.90
71084;DHT22;58741;52.672;13.548;2023-11-21T08:11:00;5.00;99.90
71084;DHT22;58741;52.672;13.548;2023-11-21T08:13:29;5.00;99.90
71084;DHT22;58741;52.672;13.548;2023-11-21T08:15:58;5.00;99.90
71084;DHT22;58741;52.672;13.548;2023-11-21T08:18:32;5.00;99.90
71084;DHT22;58741;52.672;13.548;2023-11-21T08:20:58;5.00;99.90
71084;DHT22;58741;52.672;13.548;2023-11-21T08:23:25;5.00;99.90
71084;DHT22;58741;52.672;13.548;2023-11-21T08:25:53;5.00;99.90
71084;DHT22;58741;52.672;13.548;2023-11-21T08:28:20;5.00;99.90
71084;DHT22;58741;52.672;13.548;2023-11-21T08:30:50;5.00;99.90
71084;DHT22;58741;52.672;13.548;2023-11-21T08:33:16;5.00;99.90
71084;DHT22;58741;52.672;13.548;2023-11-21T08:35:44;5.00;99.90
71084;DHT22;58741;52.672;13.548;2023-11-21T08:38:11;5.00;99.90
71084;DHT22;58741;52.672;13.548;2023-11-21T08:40:38;5.00;99.90
71084;DHT22;58741;52.672;13.548;2023-11-21T08:43:05;5.00;99.90
71084;DHT22;58741;52.672;13.548;2023-11-21T08:45:34;5.00;99.90
71084;DHT22;58741;52.672;13.548;2023-11-21T08:48:01;5.00;99.90
71084;DHT22;58741;52.672;13.548;2023-11-21T08:50:29;5.00;99.90
71084;DHT22;58741;52.672;13.548;2023-11-21T08:52:56;5.00;99.90
71084;DHT22;58741;52.672;13.548;2023-11-21T08:55:23;5.00;99.90
71084;DHT22;58741;52.672;13.548;2023-11-21T08:57:50;4.90;99.90
71084;DHT22;58741;52.672;13.548;2023-11-21T09:00:17;4.90;99.90
71084;DHT22;58741;52.672;13.548;2023-11-21T09:02:45;4.90;99.90
71084;DHT22;58741;52.672;13.548;2023-11-21T09:05:13;4.90;99.90
71084;DHT22;58741;52.672;13.548;2023-11-21T09:07:41;4.90;99.90
71084;DHT22;58741;52.672;13.548;2023-11-21T09:10:09;4.90;99.90
71084;DHT22;58741;52.672;13.548;2023-11-21T09:12:37;4.80;99.90
71084;DHT22;58741;52.672;13.548;2023-11-21T09:15:07;4.80;99.90
71084;DHT22;58741;52.672;13.548;2023-11-21T09:17:36;4.80;99.90
71084;DHT22;58741;52.672;13.548;2023-11-21T09:20:05;4.80;99.90
71084;DHT22;58741;52.672;13.548;2023-11-21T09:22:32;4.80;99.90
71084;DHT22;58741;52.672;13.548;2023-11-21T09:25:00;4.80;99.90
71084;DHT22;58741;52.672;13.548;2023-11-21T09:27:27;4.80;99.90
71084;DHT22;58741;52.672;13.548;2023-11-21T09:29:53;4.80;99.90
71084;DHT22;58741;52.672;13.548;2023-11-21T09:32:20;4.80;99.90
71084;DHT22;58741;52.672;13.548;2023-11-21T09:34:49;4.80;99.90
71084;DHT22;58741;52.672;13.548;2023-11-21T09:37:17;4.80;99.90
71084;DHT22;58741;52.672;13.548;2023-11-21T09:39:44;4.80;99.90
71084;DHT22;58741;52.672;13.548;2023-11-21T09:42:23;4.80;99.90
71084;DHT22;58741;52.672;13.548;2023-11-21T09:45:03;4.80;99.90
71084;DHT22;58741;52.672;13.548;2023-11-21T09:47:35;4.80;99.90
71084;DHT22;58741;52.672;13.548;2023-11-21T09:50:03;4.80;99.90
71084;DHT22;58741;52.672;13.548;2023-11-21T09:52:31;4.80;99.90
71084;DHT22;58741;52.672;13.548;2023-11-21T09:55:00;4.70;99.90
71084;DHT22;58741;52.672;13.548;2023-11-21T09:57:29;4.70;99.90
71084;DHT22;58741;52.672;13.548;2023-11-21T09:59:58;4.70;99.90
71084;DHT22;58741;52.672;13.548;2023-11-21T10:02:27;4.70;99.90
71084;DHT22;58741;52.672;13.548;2023-11-21T10:04:59;4.70;99.90
71084;DHT22;58741;52.672;13.548;2023-11-21T10:07:28;4.70;99.90
71084;DHT22;58741;52.672;13.548;2023-11-21T10:09:58;4.70;99.90
71084;DHT22;58741;52.672;13.548;2023-11-21T10:12:27;4.70;99.90
71084;DHT22;58741;52.672;13.548;2023-11-21T10:14:58;4.70;99.90
71084;DHT22;58741;52.672;13.548;2023-11-21T10:17:28;4.70;99.90
71084;DHT22;58741;52.672;13.548;2023-11-21T10:19:57;4.70;99.90
71084;DHT22;58741;52.672;13.548;2023-11-21T10:22:25;4.70;99.90
71084;DHT22;58741;52.672;13.548;2023-11-21T10:24:53;4.70;99.90
71084;DHT22;58741;52.672;13.548;2023-11-21T10:27:20;4.60;99.90
71084;DHT22;58741;52.672;13.548;2023-11-21T10:29:47;4.60;99.90
71084;DHT22;58741;52.672;13.548;2023-11-21T10:32:14;4.60;99.90
71084;DHT22;58741;52.672;13.548;2023-11-21T10:34:41;4.60;99.90
71084;DHT22;58741;52.672;13.548;2023-11-21T10:37:12;4.60;99.90
71084;DHT22;58741;52.672;13.548;2023-11-21T10:39:39;4.60;99.90
71084;DHT22;58741;52.672;13.548;2023-11-21T10:42:08;4.60;99.90
71084;DHT22;58741;52.672;13.548;2023-11-21T10:44:36;4.60;99.90
71084;DHT22;58741;52.672;13.548;2023-11-21T10:47:04;4.60;99.90
71084;DHT22;58741;52.672;13.548;2023-11-21T10:49:32;4.60;99.90
71084;DHT22;58741;52.672;13.548;2023-11-21T10:51:59;4.60;99.90
71084;DHT22;58741;52.672;13.548;2023-11-21T10:54:26;4.70;99.90
71084;DHT22;58741;52.672;13.548;2023-11-21T10:56:56;4.70;99.90
71084;DHT22;58741;52.672;13.548;2023-11-21T10:59:23;4.70;99.90
71084;DHT22;58741;52.672;13.548;2023-11-21T11:01:53;4.80;99.90
71084;DHT22;58741;52.672;13.548;2023-11-21T11:04:22;4.80;99.90
71084;DHT22;58741;52.672;13.548;2023-11-21T11:06:55;4.80;99.90
71084;DHT22;58741;52.672;13.548;2023-11-21T11:09:24;4.80;99.90
71084;DHT22;58741;52.672;13.548;2023-11-21T11:11:51;4.80;99.90
71084;DHT22;58741;52.672;13.548;2023-11-21T11:14:19;4.80;99.90
71084;DHT22;58741;52.672;13.548;2023-11-21T11:16:47;4.70;99.90
71084;DHT22;58741;52.672;13.548;2023-11-21T11:19:16;4.70;99.90
71084;DHT22;58741;52.672;13.548;2023-11-21T11:27:20;4.70;99.90
71084;DHT22;58741;52.672;13.548;2023-11-21T11:30:11;4.70;99.90
71084;DHT22;58741;52.672;13.548;2023-11-21T11:33:07;4.70;99.90
71084;DHT22;58741;52.672;13.548;2023-11-21T11:36:58;4.70;99.90
71084;DHT22;58741;52.672;13.548;2023-11-21T11:38:52;4.70;99.90
71084;DHT22;58741;52.672;13.548;2023-11-21T11:41:27;4.70;99.90
71084;DHT22;58741;52.672;13.548;2023-11-21T11:43:54;4.60;99.90
71084;DHT22;58741;52.672;13.548;2023-11-21T11:46:43;4.60;99.90
71084;DHT22;58741;52.672;13.548;2023-11-21T11:49:28;4.60;99.90
71084;DHT22;58741;52.672;13.548;2023-11-21T11:52:33;4.60;99.90
71084;DHT22;58741;52.672;13.548;2023-11-21T11:55:02;4.60;99.90
71084;DHT22;58741;52.672;13.548;2023-11-21T11:57:31;4.60;99.90
71084;DHT22;58741;52.672;13.548;2023-11-21T12:02:51;4.60;99.90
71084;DHT22;58741;52.672;13.548;2023-11-21T12:05:20;4.60;99.90
71084;DHT22;58741;52.672;13.548;2023-11-21T12:07:55;4.60;99.90
71084;DHT22;58741;52.672;13.548;2023-11-21T12:10:31;4.60;99.90
71084;DHT22;58741;52.672;13.548;2023-11-21T12:13:02;4.60;99.90
71084;DHT22;58741;52.672;13.548;2023-11-21T12:15:29;4.60;99.90
71084;DHT22;58741;52.672;13.548;2023-11-21T12:17:58;4.60;99.90
71084;DHT22;58741;52.672;13.548;2023-11-21T12:20:28;4.50;99.90
71084;DHT22;58741;52.672;13.548;2023-11-21T12:22:57;4.50;99.90
71084;DHT22;58741;52.672;13.548;2023-11-21T12:25:27;4.50;99.90
71084;DHT22;58741;52.672;13.548;2023-11-21T12:27:56;4.50;99.90
71084;DHT22;58741;52.672;13.548;2023-11-21T12:30:32;4.50;99.90
71084;DHT22;58741;52.672;13.548;2023-11-21T12:33:00;4.50;99.90
71084;DHT22;58741;52.672;13.548;2023-11-21T12:35:33;4.50;99.90
71084;DHT22;58741;52.672;13.548;2023-11-21T12:38:02;4.50;99.90
71084;DHT22;58741;52.672;13.548;2023-11-21T12:40:29;4.50;99.90
71084;DHT22;58741;52.672;13.548;2023-11-21T12:42:58;4.50;99.90
71084;DHT22;58741;52.672;13.548;2023-11-21T12:45:27;4.50;99.90
71084;DHT22;58741;52.672;13.548;2023-11-21T12:48:00;4.50;99.90
71084;DHT22;58741;52.672;13.548;2023-11-21T12:50:30;4.50;99.90
71084;DHT22;58741;52.672;13.548;2023-11-21T12:53:05;4.50;99.90
71084;DHT22;58741;52.672;13.548;2023-11-21T12:55:33;4.40;99.90
71084;DHT22;58741;52.672;13.548;2023-11-21T12:58:08;4.40;99.90
71084;DHT22;58741;52.672;13.548;2023-11-21T13:00:43;4.40;99.90
71084;DHT22;58741;52.672;13.548;2023-11-21T13:03:12;4.40;99.90
71084;DHT22;58741;52.672;13.548;2023-11-21T13:05:45;4.40;99.90
71084;DHT22;58741;52.672;13.548;2023-11-21T13:08:15;4.40;99.90
71084;DHT22;58741;52.672;13.548;2023-11-21T13:10:49;4.30;99.90
71084;DHT22;58741;52.672;13.548;2023-11-21T13:13:16;4.40;99.90
71084;DHT22;58741;52.672;13.548;2023-11-21T13:15:55;4.30;99.90
71084;DHT22;58741;52.672;13.548;2023-11-21T13:18:28;4.30;99.90
71084;DHT22;58741;52.672;13.548;2023-11-21T13:20:57;4.30;99.90
71084;DHT22;58741;52.672;13.548;2023-11-21T13:23:25;4.20;99.90
71084;DHT22;58741;52.672;13.548;2023-11-21T13:25:53;4.20;99.90
71084;DHT22;58741;52.672;13.548;2023-11-21T13:28:31;4.20;99.90
71084;DHT22;58741;52.672;13.548;2023-11-21T13:31:01;4.10;99.90
71084;DHT22;58741;52.672;13.548;2023-11-21T13:33:48;4.10;99.90
71084;DHT22;58741;52.672;13.548;2023-11-21T13:36:23;4.10;99.90
71084;DHT22;58741;52.672;13.548;2023-11-21T13:38:51;4.00;99.90
71084;DHT22;58741;52.672;13.548;2023-11-21T13:41:21;4.00;99.90
71084;DHT22;58741;52.672;13.548;2023-11-21T13:43:57;4.00;99.90
71084;DHT22;58741;52.672;13.548;2023-11-21T13:46:42;4.00;99.90
71084;DHT22;58741;52.672;13.548;2023-11-21T13:49:09;4.00;99.90
71084;DHT22;58741;52.672;13.548;2023-11-21T13:51:37;3.90;99.90
71084;DHT22;58741;52.672;13.548;2023-11-21T13:54:17;3.90;99.90
71084;DHT22;58741;52.672;13.548;2023-11-21T13:56:46;3.90;99.90
71084;DHT22;58741;52.672;13.548;2023-11-21T13:59:13;3.90;99.90
71084;DHT22;58741;52.672;13.548;2023-11-21T14:01:48;3.90;99.90
71084;DHT22;58741;52.672;13.548;2023-11-21T14:04:21;3.80;99.90
71084;DHT22;58741;52.672;13.548;2023-11-21T14:07:06;3.80;99.90
71084;DHT22;58741;52.672;13.548;2023-11-21T14:09:51;3.80;99.90
71084;DHT22;58741;52.672;13.548;2023-11-21T14:12:19;3.70;99.90
71084;DHT22;58741;52.672;13.548;2023-11-21T14:14:46;3.60;99.90
71084;DHT22;58741;52.672;13.548;2023-11-21T14:17:14;3.60;99.90
71084;DHT22;58741;52.672;13.548;2023-11-21T14:19:41;3.60;99.90
71084;DHT22;58741;52.672;13.548;2023-11-21T14:22:11;3.60;99.90
71084;DHT22;58741;52.672;13.548;2023-11-21T14:24:38;3.60;99.90
71084;DHT22;58741;52.672;13.548;2023-11-21T14:27:10;3.50;99.90
71084;DHT22;58741;52.672;13.548;2023-11-21T14:29:37;3.50;99.90
71084;DHT22;58741;52.672;13.548;2023-11-21T14:32:10;3.50;99.90
71084;DHT22;58741;52.672;13.548;2023-11-21T14:34:37;3.50;99.90
71084;DHT22;58741;52.672;13.548;2023-11-21T14:37:05;3.50;99.90
71084;DHT22;58741;52.672;13.548;2023-11-21T14:39:31;3.40;99.90
71084;DHT22;58741;52.672;13.548;2023-11-21T14:42:04;3.40;99.90
71084;DHT22;58741;52.672;13.548;2023-11-21T14:44:31;3.40;99.90
71084;DHT22;58741;52.672;13.548;2023-11-21T14:47:04;3.40;99.90
71084;DHT22;58741;52.672;13.548;2023-11-21T14:49:39;3.40;99.90
71084;DHT22;58741;52.672;13.548;2023-11-21T14:52:20;3.30;99.90
71084;DHT22;58741;52.672;13.548;2023-11-21T14:55:02;3.30;99.90
71084;DHT22;58741;52.672;13.548;2023-11-21T14:57:52;3.30;99.90
71084;DHT22;58741;52.672;13.548;2023-11-21T15:00:20;3.20;99.90
71084;DHT22;58741;52.672;13.548;2023-11-21T15:03:00;3.20;99.90
71084;DHT22;58741;52.672;13.548;2023-11-21T15:05:28;3.20;99.90
71084;DHT22;58741;52.672;13.548;2023-11-21T15:07:55;3.20;99.90
71084;DHT22;58741;52.672;13.548;2023-11-21T15:10:40;3.20;99.90
71084;DHT22;58741;52.672;13.548;2023-11-21T15:13:14;3.20;99.90
71084;DHT22;58741;52.672;13.548;2023-11-21T15:15:42;3.20;99.90
71084;DHT22;58741;52.672;13.548;2023-11-21T15:18:09;3.20;99.90
71084;DHT22;58741;52.672;13.548;2023-11-21T15:20:42;3.20;99.90
71084;DHT22;58741;52.672;13.548;2023-11-21T15:23:10;3.20;99.90
71084;DHT22;58741;52.672;13.548;2023-11-21T15:25:39;3.10;99.90
71084;DHT22;58741;52.672;13.548;2023-11-21T15:28:06;3.20;99.90
71084;DHT22;58741;52.672;13.548;2023-11-21T15:30:33;3.10;99.90
71084;DHT22;58741;52.672;13.548;2023-11-21T15:33:00;3.10;99.90
71084;DHT22;58741;52.672;13.548;2023-11-21T15:35:27;3.10;99.90
71084;DHT22;58741;52.672;13.548;2023-11-21T15:37:54;3.10;99.90
71084;DHT22;58741;52.672;13.548;2023-11-21T15:40:24;3.10;99.90
71084;DHT22;58741;52.672;13.548;2023-11-21T15:42:51;3.10;99.90
71084;DHT22;58741;52.672;13.548;2023-11-21T15:45:19;3.10;99.90
71084;DHT22;58741;52.672;13.548;2023-11-21T15:47:48;3.10;99.90
71084;DHT22;58741;52.672;13.548;2023-11-21T15:50:15;3.10;99.90
71084;DHT22;58741;52.672;13.548;2023-11-21T15:52:42;3.10;99.90